createdAt,value
2024-02-29T00:00:15.444Z,64.93
2024-02-29T00:05:18.307Z,76.15
2024-02-29T00:10:20.029Z,78.38
2024-02-29T00:15:21.562Z,79.05
2024-02-29T00:20:24.462Z,81.18
2024-02-29T00:25:25.968Z,85.20
2024-02-29T00:30:27.487Z,82.93
2024-02-29T00:35:30.410Z,73.28
2024-02-29T00:40:31.922Z,97.57
2024-02-29T00:45:33.470Z,74.30
2024-02-29T00:50:36.361Z,75.57
2024-02-29T00:55:38.243Z,90.30
2024-02-29T01:00:39.842Z,85.85
2024-02-29T01:05:42.829Z,99.00
2024-02-29T01:10:44.369Z,94.35
2024-02-29T01:15:46.003Z,96.68
2024-02-29T01:20:49.003Z,98.22
2024-02-29T01:25:50.621Z,99.00
2024-02-29T01:30:52.250Z,91.25
2024-02-29T01:35:55.224Z,90.00
2024-02-29T01:40:56.757Z,100.32
2024-02-29T01:46:11.741Z,84.03
2024-02-29T01:51:15.513Z,101.53
2024-02-29T01:56:20.049Z,64.40
2024-02-29T02:01:21.619Z,92.97
2024-02-29T02:06:24.587Z,84.47
2024-02-29T02:11:26.271Z,103.03
2024-02-29T02:16:27.859Z,82.97
2024-02-29T02:21:30.845Z,87.38
2024-02-29T02:26:32.482Z,91.93
2024-02-29T02:31:34.120Z,72.70
2024-02-29T02:36:37.033Z,87.47
2024-02-29T02:41:38.691Z,90.78
2024-02-29T02:46:40.221Z,89.70
2024-02-29T02:51:43.180Z,78.35
2024-02-29T02:56:44.702Z,79.32
2024-02-29T03:01:46.285Z,84.82
2024-02-29T03:06:49.438Z,71.35
2024-02-29T03:11:51.185Z,82.07
2024-02-29T03:16:52.775Z,84.20
2024-02-29T03:21:55.662Z,93.32
2024-02-29T03:26:57.199Z,101.43
2024-02-29T03:31:58.776Z,91.38
2024-02-29T03:37:01.723Z,78.72
2024-02-29T03:42:03.544Z,88.65
2024-02-29T03:47:05.948Z,101.45
2024-02-29T03:52:08.968Z,96.00
2024-02-29T03:57:10.614Z,93.75
2024-02-29T04:02:12.124Z,105.32
2024-02-29T04:07:15.059Z,93.90
2024-02-29T04:12:16.662Z,95.93
2024-02-29T04:17:18.164Z,80.97
2024-02-29T04:22:21.121Z,98.93
2024-02-29T04:27:22.710Z,76.43
2024-02-29T04:32:24.317Z,90.63
2024-02-29T04:37:27.227Z,89.28
2024-02-29T04:42:28.762Z,84.35
2024-02-29T04:47:30.493Z,119.18
2024-02-29T04:52:33.332Z,77.80
2024-02-29T04:57:34.977Z,61.15
2024-02-29T05:02:36.472Z,73.70
2024-02-29T05:07:39.449Z,81.65
2024-02-29T05:12:41.048Z,86.85
2024-02-29T05:17:42.598Z,110.28
2024-02-29T05:22:45.533Z,106.85
2024-02-29T05:27:47.240Z,100.10
2024-02-29T05:32:48.962Z,88.63
2024-02-29T05:37:51.832Z,105.45
2024-02-29T05:42:53.363Z,76.65
2024-02-29T05:47:54.945Z,87.85
2024-02-29T05:52:57.802Z,77.88
2024-02-29T05:57:59.472Z,101.75
2024-02-29T06:03:01.008Z,85.43
2024-02-29T06:08:04.070Z,107.65
2024-02-29T06:13:05.620Z,103.82
2024-02-29T06:18:07.321Z,108.88
2024-02-29T06:23:10.224Z,87.05
2024-02-29T06:28:11.893Z,106.65
2024-02-29T06:33:13.587Z,117.88
2024-02-29T06:38:16.633Z,121.68
2024-02-29T06:43:18.286Z,108.00
2024-02-29T06:48:20.257Z,115.30
2024-02-29T06:53:23.256Z,103.80
2024-02-29T06:58:24.932Z,124.40
2024-02-29T07:03:26.497Z,114.10
2024-02-29T07:08:29.421Z,121.18
2024-02-29T07:13:30.946Z,98.95
2024-02-29T07:18:32.494Z,83.45
2024-02-29T07:23:35.856Z,102.90
2024-02-29T07:28:38.392Z,83.25
2024-02-29T07:33:40.131Z,110.63
2024-02-29T07:38:43.017Z,85.18
2024-02-29T07:43:44.556Z,68.78
2024-02-29T07:48:46.202Z,75.43
2024-02-29T07:53:49.145Z,73.90
2024-02-29T07:58:50.678Z,61.20
2024-02-29T08:03:52.188Z,77.40
2024-02-29T08:08:55.068Z,84.10
2024-02-29T08:13:56.583Z,81.22
2024-02-29T08:18:58.205Z,93.70
2024-02-29T08:24:01.181Z,72.45
2024-02-29T08:29:02.703Z,73.57
2024-02-29T08:34:04.327Z,61.17
2024-02-29T08:39:07.275Z,61.70
2024-02-29T08:44:08.832Z,53.10
2024-02-29T08:49:10.391Z,61.97
2024-02-29T08:54:13.368Z,79.00
2024-02-29T08:59:17.117Z,79.85
2024-02-29T09:04:20.092Z,73.82
2024-02-29T09:09:23.470Z,70.45
2024-02-29T09:14:25.343Z,79.35
2024-02-29T09:19:26.943Z,71.82
2024-02-29T09:24:29.932Z,66.35
2024-02-29T09:29:34.430Z,66.40
2024-02-29T09:34:38.491Z,47.58
2024-02-29T09:39:43.356Z,54.67
2024-02-29T09:44:44.957Z,48.40
2024-02-29T09:49:49.414Z,58.20
2024-02-29T09:54:55.899Z,46.25
2024-02-29T09:59:58.634Z,50.92
2024-02-29T10:05:00.194Z,45.58
2024-02-29T10:10:09.164Z,47.47
2024-02-29T10:15:11.385Z,44.67
2024-02-29T10:20:12.994Z,46.50
2024-02-29T10:25:16.020Z,41.90
2024-02-29T10:30:18.797Z,41.28
2024-02-29T10:35:21.753Z,40.38
2024-02-29T10:40:24.834Z,40.85
2024-02-29T10:45:27.627Z,38.80
2024-02-29T10:50:33.998Z,43.28
2024-02-29T10:55:48.409Z,45.83
2024-02-29T11:00:50.354Z,47.30
2024-02-29T11:05:52.561Z,44.65
2024-02-29T11:10:56.670Z,40.38
2024-02-29T11:15:58.311Z,39.33
2024-02-29T11:21:03.253Z,38.20
2024-02-29T11:26:08.884Z,38.92
2024-02-29T11:31:17.059Z,37.90
2024-02-29T11:36:20.039Z,36.60
2024-02-29T11:41:23.443Z,34.72
2024-02-29T11:46:25.134Z,35.80
2024-02-29T11:51:26.757Z,30.25
2024-02-29T11:56:29.601Z,31.60
2024-02-29T12:01:31.205Z,28.13
2024-02-29T12:06:34.116Z,27.08
2024-02-29T12:11:37.425Z,29.63
2024-02-29T12:16:40.727Z,27.70
2024-02-29T12:21:43.169Z,29.40
2024-02-29T12:26:48.898Z,29.65
2024-02-29T12:31:50.533Z,29.02
2024-02-29T12:36:52.206Z,30.35
2024-02-29T12:41:55.197Z,28.85
2024-02-29T12:46:56.697Z,29.25
2024-02-29T12:51:58.232Z,29.85
2024-02-29T12:57:01.180Z,28.85
2024-02-29T13:02:02.951Z,28.60
2024-02-29T13:07:04.888Z,28.48
2024-02-29T13:12:07.969Z,26.83
2024-02-29T13:17:09.568Z,23.10
2024-02-29T13:22:11.129Z,23.02
2024-02-29T13:27:14.064Z,23.48
2024-02-29T13:32:15.795Z,22.83
2024-02-29T13:37:19.532Z,22.58
2024-02-29T13:42:23.449Z,23.55
2024-02-29T13:47:24.981Z,22.13
2024-02-29T13:52:27.709Z,22.05
2024-02-29T13:57:30.591Z,22.00
2024-02-29T14:02:32.157Z,24.67
2024-02-29T14:07:33.919Z,23.27
2024-02-29T14:12:36.761Z,22.23
2024-02-29T14:17:39.217Z,22.55
2024-02-29T14:22:40.767Z,22.75
2024-02-29T14:27:43.730Z,22.02
2024-02-29T14:32:45.411Z,22.17
2024-02-29T14:37:47.065Z,22.48
2024-02-29T14:42:49.968Z,23.33
2024-02-29T14:47:51.704Z,22.85
2024-02-29T14:52:53.249Z,23.52
2024-02-29T14:57:56.405Z,22.17
2024-02-29T15:02:57.962Z,23.60
2024-02-29T15:07:59.583Z,23.75
2024-02-29T15:13:02.561Z,23.02
2024-02-29T15:18:04.951Z,22.27
2024-02-29T15:23:06.533Z,23.60
2024-02-29T15:28:09.491Z,22.60
2024-02-29T15:33:11.189Z,22.52
2024-02-29T15:38:12.798Z,22.17
2024-02-29T15:43:15.811Z,23.15
2024-02-29T15:48:17.590Z,22.52
2024-02-29T15:53:19.153Z,22.67
2024-02-29T15:58:22.094Z,23.35
2024-02-29T16:03:23.690Z,22.00
2024-02-29T16:08:26.321Z,21.45
2024-02-29T16:13:29.384Z,21.40
2024-02-29T16:18:30.970Z,20.88
2024-02-29T16:23:32.737Z,21.52
2024-02-29T16:28:35.659Z,21.08
2024-02-29T16:33:37.297Z,20.60
2024-02-29T16:38:38.897Z,22.00
2024-02-29T16:43:41.814Z,21.80
2024-02-29T16:48:43.461Z,22.60
2024-02-29T16:53:46.036Z,23.02
2024-02-29T16:58:48.988Z,23.23
2024-02-29T17:03:50.552Z,27.45
2024-02-29T17:08:52.111Z,36.15
2024-02-29T17:13:54.926Z,26.10
2024-02-29T17:18:56.461Z,27.52
2024-02-29T17:23:58.041Z,25.42
2024-02-29T17:29:00.982Z,26.73
2024-02-29T17:34:02.529Z,27.83
2024-02-29T17:39:04.283Z,28.30
2024-02-29T17:44:07.224Z,30.13
2024-02-29T17:49:08.850Z,31.08
2024-02-29T17:54:10.338Z,29.02
2024-02-29T17:59:13.288Z,29.73
2024-02-29T18:04:14.850Z,28.90
2024-02-29T18:09:16.361Z,31.05
2024-02-29T18:14:19.331Z,29.95
2024-02-29T18:19:20.972Z,28.10
2024-02-29T18:24:22.701Z,28.63
2024-02-29T18:29:27.248Z,28.38
2024-02-29T18:34:29.638Z,29.73
2024-02-29T18:39:31.241Z,28.90
2024-02-29T18:44:34.184Z,27.20
2024-02-29T18:49:35.731Z,37.13
2024-02-29T18:54:37.307Z,30.85
2024-02-29T18:59:40.221Z,35.50
2024-02-29T19:04:41.853Z,33.17
2024-02-29T19:09:43.549Z,38.20
2024-02-29T19:14:46.495Z,41.42
2024-02-29T19:19:48.155Z,31.00
2024-02-29T19:24:49.778Z,28.67
2024-02-29T19:29:52.828Z,29.88
2024-02-29T19:34:54.399Z,32.35
2024-02-29T19:39:55.959Z,31.83
2024-02-29T19:44:58.931Z,30.85
2024-02-29T19:50:00.747Z,32.80
2024-02-29T19:55:02.635Z,33.42
2024-02-29T20:00:06.796Z,36.30
2024-02-29T20:05:08.501Z,40.03
2024-02-29T20:10:10.699Z,37.00
2024-02-29T20:15:15.936Z,37.92
2024-02-29T20:20:17.866Z,37.60
2024-02-29T20:25:19.440Z,39.67
2024-02-29T20:30:22.978Z,39.70
2024-02-29T20:35:24.647Z,38.78
2024-02-29T20:40:26.328Z,41.10
2024-02-29T20:45:30.159Z,39.97
2024-02-29T20:50:31.760Z,41.22
2024-02-29T20:55:33.447Z,42.13
2024-02-29T21:00:36.286Z,40.50
2024-02-29T21:05:37.847Z,41.22
2024-02-29T21:10:39.455Z,42.28
2024-02-29T21:15:42.609Z,38.70
2024-02-29T21:20:44.309Z,41.88
2024-02-29T21:25:45.812Z,40.45
2024-02-29T21:30:48.847Z,39.25
2024-02-29T21:35:51.492Z,39.97
2024-02-29T21:40:53.248Z,40.80
2024-02-29T21:45:56.154Z,41.08
2024-02-29T21:50:57.724Z,39.53
2024-02-29T21:55:59.336Z,40.45
2024-02-29T22:01:02.289Z,40.67
2024-02-29T22:06:04.273Z,38.45
2024-02-29T22:11:05.836Z,41.38
2024-02-29T22:16:08.900Z,45.13
2024-02-29T22:21:10.717Z,45.38
2024-02-29T22:26:12.220Z,48.42
2024-02-29T22:31:15.443Z,46.97
2024-02-29T22:36:17.037Z,52.13
2024-02-29T22:41:18.604Z,44.35
2024-02-29T22:46:21.558Z,44.33
2024-02-29T22:51:23.209Z,43.30
2024-02-29T22:56:24.770Z,44.05
2024-02-29T23:01:27.707Z,45.10
2024-02-29T23:06:30.347Z,42.58
2024-02-29T23:11:32.209Z,42.03
2024-02-29T23:16:35.260Z,43.83
2024-02-29T23:21:36.793Z,43.53
2024-02-29T23:26:38.328Z,44.90
2024-02-29T23:31:41.185Z,48.50
2024-02-29T23:36:42.832Z,46.10
2024-02-29T23:41:44.466Z,43.20
2024-02-29T23:46:47.427Z,45.83
2024-02-29T23:51:49.076Z,41.53
2024-02-29T23:56:51.084Z,50.00
